Chattanooga (CHA/KCHA)

Map

Destinations

Information

Location
Chattanooga, TN
Local Time
16:35 / 4:35 pm
GMT Time
20:35 / 8:35 pm
Gates
2
No FAA reported delays
METAR KCHA 231953Z 25016G22KT 10SM SCT040 SCT080 19/10 A2986 RMK AO2 PK WND 23026/1855 SLP105 T01940100
TAF KCHA 231904Z 2319/2418 26014G25KT P6SM SCT040 TEMPO 2319/2321 5SM -SHRA BR SCT015 OVC040 FM232200 25010KT P6SM SCT040 FM240200 VRB02KT P6SM SCT080 FM240800 20002KT P6SM OVC040 FM241400 25010KT P6SM SCT050 BKN100